createdAt,value
2018-05-23T00:00:16.059Z,18.80
2018-05-23T00:02:44.773Z,18.80
2018-05-23T00:07:47.843Z,18.70
2018-05-23T00:10:16.317Z,18.70
2018-05-23T00:12:45.850Z,18.70
2018-05-23T00:15:15.735Z,18.60
2018-05-23T00:17:44.187Z,18.60
2018-05-23T00:20:13.435Z,18.60
2018-05-23T00:22:41.924Z,18.50
2018-05-23T00:25:14.231Z,18.60
2018-05-23T00:27:43.523Z,18.50
2018-05-23T00:30:11.941Z,18.50
2018-05-23T00:32:40.291Z,18.50
2018-05-23T00:35:08.617Z,18.50
2018-05-23T00:37:36.983Z,18.50
2018-05-23T00:40:05.399Z,18.50
2018-05-23T00:42:33.717Z,18.50
2018-05-23T00:45:02.193Z,18.40
2018-05-23T00:47:30.677Z,18.40
2018-05-23T00:49:59.068Z,18.40
2018-05-23T00:52:27.483Z,18.40
2018-05-23T00:58:05.769Z,18.30
2018-05-23T01:00:34.811Z,18.30
2018-05-23T01:03:03.075Z,18.30
2018-05-23T01:05:31.351Z,18.30
2018-05-23T01:07:59.615Z,18.30
2018-05-23T01:10:27.936Z,18.30
2018-05-23T01:12:56.990Z,18.20
2018-05-23T01:15:25.287Z,18.20
2018-05-23T01:17:53.573Z,18.20
2018-05-23T01:20:21.871Z,18.20
2018-05-23T01:22:50.915Z,18.20
2018-05-23T01:25:19.252Z,18.10
2018-05-23T01:27:47.549Z,18.20
2018-05-23T01:30:16.434Z,18.10
2018-05-23T01:32:44.708Z,18.10
2018-05-23T01:35:12.997Z,18.10
2018-05-23T01:37:41.222Z,18.10
2018-05-23T01:40:09.480Z,18.10
2018-05-23T01:42:37.777Z,18.10
2018-05-23T01:45:06.831Z,18.10
2018-05-23T01:47:35.113Z,18.00
2018-05-23T01:50:03.414Z,18.00
2018-05-23T01:52:31.737Z,18.00
2018-05-23T01:54:59.968Z,18.00
2018-05-23T01:57:28.245Z,18.00
2018-05-23T01:59:56.496Z,18.00
2018-05-23T02:02:24.778Z,18.00
2018-05-23T02:04:53.077Z,18.00
2018-05-23T02:07:21.334Z,18.00
2018-05-23T02:09:49.602Z,17.90
2018-05-23T02:12:17.866Z,17.90
2018-05-23T02:14:46.876Z,17.90
2018-05-23T02:17:15.108Z,17.90
2018-05-23T02:19:44.132Z,17.90
2018-05-23T02:22:12.432Z,17.80
2018-05-23T02:24:40.690Z,17.90
2018-05-23T02:27:08.956Z,17.80
2018-05-23T02:29:37.234Z,17.80
2018-05-23T02:32:05.491Z,17.80
2018-05-23T02:34:33.768Z,17.90
2018-05-23T02:37:02.028Z,17.80
2018-05-23T02:39:31.132Z,17.80
2018-05-23T02:42:00.177Z,17.80
2018-05-23T02:44:28.429Z,17.70
2018-05-23T02:46:56.811Z,17.80
2018-05-23T02:49:25.037Z,17.80
2018-05-23T02:51:54.088Z,17.80
2018-05-23T02:54:22.371Z,17.70
2018-05-23T02:56:50.696Z,17.70
2018-05-23T02:59:19.751Z,17.70
2018-05-23T03:01:48.051Z,17.70
2018-05-23T03:04:16.317Z,17.70
2018-05-23T03:06:44.609Z,17.70
2018-05-23T03:09:12.927Z,17.70
2018-05-23T03:11:41.248Z,17.70
2018-05-23T03:14:09.537Z,17.60
2018-05-23T03:16:37.820Z,17.60
2018-05-23T03:19:06.125Z,17.60
2018-05-23T03:21:34.408Z,17.60
2018-05-23T03:24:02.661Z,17.60
2018-05-23T03:26:31.689Z,17.60
2018-05-23T03:28:59.999Z,17.50
2018-05-23T03:31:28.319Z,17.60
2018-05-23T03:33:57.371Z,17.60
2018-05-23T03:36:25.671Z,17.50
2018-05-23T03:38:53.918Z,17.60
2018-05-23T03:41:22.192Z,17.60
2018-05-23T03:43:50.608Z,17.60
2018-05-23T03:46:19.604Z,17.60
2018-05-23T03:48:48.637Z,17.60
2018-05-23T03:51:16.906Z,17.50
2018-05-23T03:53:45.171Z,17.60
2018-05-23T03:56:14.206Z,17.60
2018-05-23T03:58:42.441Z,17.50
2018-05-23T04:01:28.406Z,17.60
2018-05-23T04:04:14.468Z,17.60
2018-05-23T04:07:00.555Z,17.50
2018-05-23T04:09:28.801Z,17.50
2018-05-23T04:11:57.030Z,17.50
2018-05-23T04:14:25.368Z,17.50
2018-05-23T04:16:53.685Z,17.50
2018-05-23T04:19:21.960Z,17.50
2018-05-23T04:21:50.268Z,17.40
2018-05-23T04:24:19.295Z,17.40
2018-05-23T04:26:47.592Z,17.40
2018-05-23T04:29:15.839Z,17.40
2018-05-23T04:31:44.090Z,17.40
2018-05-23T04:34:12.372Z,17.40
2018-05-23T04:36:41.425Z,17.40
2018-05-23T04:39:09.832Z,17.40
2018-05-23T04:41:38.889Z,17.40
2018-05-23T04:44:07.153Z,17.30
2018-05-23T04:46:35.474Z,17.40
2018-05-23T04:49:04.547Z,17.40
2018-05-23T04:51:32.801Z,17.30
2018-05-23T04:54:01.083Z,17.40
2018-05-23T04:56:29.369Z,17.40
2018-05-23T04:58:57.665Z,17.40
2018-05-23T05:01:25.938Z,17.40
2018-05-23T05:03:54.216Z,17.30
2018-05-23T05:06:22.489Z,17.40
2018-05-23T05:08:50.795Z,17.30
2018-05-23T05:11:19.856Z,17.30
2018-05-23T05:13:48.217Z,17.30
2018-05-23T05:16:16.432Z,17.30
2018-05-23T05:18:44.733Z,17.30
2018-05-23T05:21:13.794Z,17.30
2018-05-23T05:23:42.053Z,17.30
2018-05-23T05:26:10.362Z,17.30
2018-05-23T05:28:38.642Z,17.30
2018-05-23T05:31:06.919Z,17.30
2018-05-23T05:33:35.179Z,17.30
2018-05-23T05:36:03.439Z,17.30
2018-05-23T05:38:31.725Z,17.30
2018-05-23T05:41:00.014Z,17.30
2018-05-23T05:43:28.318Z,17.30
2018-05-23T05:45:57.349Z,17.40
2018-05-23T05:48:25.662Z,17.40
2018-05-23T05:50:53.985Z,17.40
2018-05-23T05:53:22.273Z,17.40
2018-05-23T05:55:50.548Z,17.50
2018-05-23T05:58:18.817Z,17.50
2018-05-23T06:00:47.108Z,17.50
2018-05-23T06:03:15.404Z,17.50
2018-05-23T06:05:43.706Z,17.50
2018-05-23T06:08:12.037Z,17.50
2018-05-23T06:10:40.310Z,17.60
2018-05-23T06:13:08.569Z,17.60
2018-05-23T06:15:37.621Z,17.70
2018-05-23T06:18:05.889Z,17.60
2018-05-23T06:20:34.194Z,17.70
2018-05-23T06:23:03.212Z,17.70
2018-05-23T06:25:32.307Z,17.80
2018-05-23T06:28:00.594Z,17.70
2018-05-23T06:30:28.891Z,17.80
2018-05-23T06:32:57.178Z,17.80
2018-05-23T06:35:25.443Z,17.90
2018-05-23T06:37:53.754Z,17.90
2018-05-23T06:40:22.038Z,17.90
2018-05-23T06:42:50.307Z,18.00
2018-05-23T06:45:18.637Z,18.00
2018-05-23T06:47:46.888Z,18.10
2018-05-23T06:50:15.943Z,18.20
2018-05-23T06:52:44.234Z,18.10
2018-05-23T06:55:12.494Z,18.20
2018-05-23T06:57:40.763Z,18.30
2018-05-23T07:00:09.059Z,18.30
2018-05-23T07:02:37.349Z,18.30
2018-05-23T07:05:06.396Z,18.40
2018-05-23T07:07:34.716Z,18.40
2018-05-23T07:10:03.043Z,18.50
2018-05-23T07:12:31.359Z,18.60
2018-05-23T07:14:59.629Z,18.60
2018-05-23T07:17:27.904Z,18.70
2018-05-23T07:19:56.196Z,18.70
2018-05-23T07:22:25.278Z,18.90
2018-05-23T07:24:53.529Z,18.80
2018-05-23T07:27:21.823Z,18.90
2018-05-23T07:29:50.081Z,19.00
2018-05-23T07:32:18.319Z,19.00
2018-05-23T07:34:47.336Z,19.10
2018-05-23T07:37:15.632Z,19.10
2018-05-23T07:39:43.899Z,19.20
2018-05-23T07:42:12.228Z,19.20
2018-05-23T07:44:40.543Z,19.30
2018-05-23T07:47:09.597Z,19.40
2018-05-23T07:49:37.864Z,19.30
2018-05-23T07:52:06.140Z,19.50
2018-05-23T07:54:34.426Z,19.50
2018-05-23T07:57:02.703Z,19.60
2018-05-23T07:59:31.008Z,19.60
2018-05-23T08:02:00.043Z,19.70
2018-05-23T08:04:28.357Z,19.70
2018-05-23T08:06:57.483Z,19.80
2018-05-23T08:09:26.502Z,19.90
2018-05-23T08:11:54.768Z,19.80
2018-05-23T08:14:23.075Z,19.90
2018-05-23T08:16:51.380Z,20.00
2018-05-23T08:19:19.673Z,20.00
2018-05-23T08:21:48.752Z,20.20
2018-05-23T08:24:17.064Z,20.10
2018-05-23T08:26:45.315Z,20.20
2018-05-23T08:29:14.348Z,20.40
2018-05-23T08:31:42.651Z,20.30
2018-05-23T08:34:10.916Z,20.50
2018-05-23T08:36:39.198Z,20.60
2018-05-23T08:39:07.515Z,20.80
2018-05-23T08:41:36.543Z,21.00
2018-05-23T08:44:04.810Z,21.00
2018-05-23T08:46:33.824Z,21.20
2018-05-23T08:49:02.047Z,21.20
2018-05-23T08:51:30.377Z,21.30
2018-05-23T08:53:58.629Z,21.40
2018-05-23T08:56:31.365Z,21.60
2018-05-23T08:58:59.640Z,21.50
2018-05-23T09:01:31.031Z,21.70
2018-05-23T09:04:00.128Z,21.80
2018-05-23T09:06:29.225Z,22.00
2018-05-23T09:08:58.289Z,22.10
2018-05-23T09:11:26.546Z,22.00
2018-05-23T09:13:54.839Z,22.20
2018-05-23T09:16:23.121Z,22.30
2018-05-23T09:18:51.386Z,22.40
2018-05-23T09:21:19.685Z,22.50
2018-05-23T09:23:47.940Z,22.60
2018-05-23T09:26:16.250Z,22.80
2018-05-23T09:28:45.304Z,22.90
2018-05-23T09:31:13.585Z,22.90
2018-05-23T09:33:41.884Z,23.00
2018-05-23T09:36:10.224Z,23.10
2018-05-23T09:38:38.476Z,23.10
2018-05-23T09:41:06.725Z,23.10
2018-05-23T09:43:35.766Z,23.20
2018-05-23T09:46:04.149Z,23.20
2018-05-23T09:48:32.433Z,23.30
2018-05-23T09:51:00.716Z,23.30
2018-05-23T09:53:29.035Z,23.40
2018-05-23T09:55:58.056Z,23.50
2018-05-23T09:58:26.342Z,23.40
2018-05-23T10:00:55.367Z,23.50
2018-05-23T10:03:23.652Z,23.50
2018-05-23T10:05:51.925Z,23.60
2018-05-23T10:08:20.270Z,23.70
2018-05-23T10:10:48.555Z,23.70
2018-05-23T10:13:16.798Z,23.80
2018-05-23T10:15:45.083Z,23.90
2018-05-23T10:18:13.411Z,23.90
2018-05-23T10:20:41.685Z,23.80
2018-05-23T10:23:10.029Z,23.90
2018-05-23T10:25:38.277Z,23.90
2018-05-23T10:28:06.548Z,23.90
2018-05-23T10:30:35.613Z,23.90
2018-05-23T10:33:03.907Z,23.90
2018-05-23T10:35:32.191Z,24.00
2018-05-23T10:38:01.264Z,24.00
2018-05-23T10:40:29.492Z,24.00
2018-05-23T10:42:57.769Z,24.00
2018-05-23T10:45:26.056Z,24.00
2018-05-23T10:47:54.355Z,24.00
2018-05-23T10:50:22.692Z,24.00
2018-05-23T10:52:50.957Z,24.00
2018-05-23T10:55:20.018Z,24.10
2018-05-23T10:57:48.294Z,24.10
2018-05-23T11:00:16.624Z,24.20
2018-05-23T11:02:44.923Z,24.20
2018-05-23T11:05:13.195Z,24.20
2018-05-23T11:07:41.459Z,24.20
2018-05-23T11:10:09.730Z,24.30
2018-05-23T11:12:37.994Z,24.30
2018-05-23T11:15:06.374Z,24.40
2018-05-23T11:17:34.552Z,24.40
2018-05-23T11:20:03.628Z,24.60
2018-05-23T11:22:31.884Z,24.50
2018-05-23T11:25:00.144Z,24.60
2018-05-23T11:27:28.430Z,24.60
2018-05-23T11:29:56.709Z,24.70
2018-05-23T11:32:24.974Z,24.70
2018-05-23T11:34:53.259Z,24.70
2018-05-23T11:37:21.516Z,24.70
2018-05-23T11:39:49.775Z,24.70
2018-05-23T11:42:18.041Z,24.70
2018-05-23T11:44:46.309Z,24.70
2018-05-23T11:47:14.588Z,24.70
2018-05-23T11:49:42.897Z,24.70
2018-05-23T11:52:11.259Z,24.70
2018-05-23T11:54:39.502Z,24.70
2018-05-23T11:57:08.541Z,24.70
2018-05-23T11:59:36.804Z,24.60
2018-05-23T12:02:05.148Z,24.70
2018-05-23T12:04:33.423Z,24.70
2018-05-23T12:07:02.051Z,24.70
2018-05-23T12:09:30.337Z,24.70
2018-05-23T12:11:58.602Z,24.70
2018-05-23T12:14:26.890Z,24.60
2018-05-23T12:16:55.178Z,24.60
2018-05-23T12:19:23.488Z,24.60
2018-05-23T12:21:51.821Z,24.60
2018-05-23T12:24:20.123Z,24.50
2018-05-23T12:26:49.180Z,24.50
2018-05-23T12:29:17.423Z,24.50
2018-05-23T12:31:46.454Z,24.50
2018-05-23T12:34:14.744Z,24.40
2018-05-23T12:36:43.103Z,24.40
2018-05-23T12:39:11.414Z,24.40
2018-05-23T12:41:39.694Z,24.40
2018-05-23T12:44:08.011Z,24.40
2018-05-23T12:46:37.063Z,24.40
2018-05-23T12:49:05.569Z,24.40
2018-05-23T12:51:33.838Z,24.40
2018-05-23T12:54:02.455Z,24.50
2018-05-23T12:56:31.475Z,24.50
2018-05-23T12:58:59.743Z,24.40
2018-05-23T13:01:28.027Z,24.50
2018-05-23T13:03:56.303Z,24.50
2018-05-23T13:06:24.589Z,24.60
2018-05-23T13:08:52.892Z,24.60
2018-05-23T13:11:21.131Z,24.60
2018-05-23T13:13:49.405Z,24.60
2018-05-23T13:16:17.677Z,24.60
2018-05-23T13:18:45.919Z,24.60
2018-05-23T13:21:14.205Z,24.60
2018-05-23T13:23:43.228Z,24.70
2018-05-23T13:26:11.499Z,24.60
2018-05-23T13:28:39.795Z,24.70
2018-05-23T13:31:08.157Z,24.70
2018-05-23T13:33:36.519Z,24.80
2018-05-23T13:36:05.598Z,24.80
2018-05-23T13:38:33.867Z,24.80
2018-05-23T13:41:02.138Z,24.90
2018-05-23T13:43:30.391Z,24.90
2018-05-23T13:45:58.743Z,25.00
2018-05-23T13:48:27.074Z,25.00
2018-05-23T13:50:55.394Z,25.00
2018-05-23T13:53:23.649Z,25.10
2018-05-23T13:55:52.668Z,25.10
2018-05-23T13:58:20.936Z,25.10
2018-05-23T14:00:49.257Z,25.20
2018-05-23T14:03:17.514Z,25.20
2018-05-23T14:05:45.776Z,25.20
2018-05-23T14:08:14.042Z,25.30
2018-05-23T14:10:42.392Z,25.30
2018-05-23T14:13:10.678Z,25.30
2018-05-23T14:15:39.709Z,25.30
2018-05-23T14:18:07.992Z,25.30
2018-05-23T14:20:36.281Z,25.40
2018-05-23T14:23:05.311Z,25.40
2018-05-23T14:25:33.578Z,25.40
2018-05-23T14:28:01.899Z,25.40
2018-05-23T14:30:30.213Z,25.40
2018-05-23T14:32:58.525Z,25.40
2018-05-23T14:35:27.565Z,25.50
2018-05-23T14:37:55.872Z,25.40
2018-05-23T14:43:24.168Z,25.50
2018-05-23T14:45:52.553Z,25.50
2018-05-23T14:48:20.839Z,25.60
2018-05-23T14:50:49.149Z,25.60
2018-05-23T14:53:17.445Z,25.60
2018-05-23T14:55:45.757Z,25.60
2018-05-23T14:58:14.003Z,25.60
2018-05-23T15:00:42.311Z,25.70
2018-05-23T15:03:10.634Z,25.70
2018-05-23T15:05:39.669Z,25.90
2018-05-23T15:08:07.925Z,25.80
2018-05-23T15:10:36.437Z,25.90
2018-05-23T15:13:04.697Z,25.90
2018-05-23T15:15:33.235Z,26.00
2018-05-23T15:18:02.333Z,26.10
2018-05-23T15:20:31.881Z,26.20
2018-05-23T15:23:00.507Z,26.10
2018-05-23T15:25:28.810Z,26.30
2018-05-23T15:27:57.136Z,26.30
2018-05-23T15:30:25.453Z,26.40
2018-05-23T15:32:54.509Z,26.40
2018-05-23T15:35:22.856Z,26.40
2018-05-23T15:37:51.115Z,26.50
2018-05-23T15:42:57.245Z,26.50
2018-05-23T15:45:25.624Z,26.40
2018-05-23T15:47:54.199Z,26.40
2018-05-23T15:50:32.478Z,26.40
2018-05-23T15:53:05.278Z,26.40
2018-05-23T15:55:33.925Z,26.40
2018-05-23T15:58:03.185Z,26.40
2018-05-23T16:00:31.609Z,26.40
2018-05-23T16:03:00.920Z,26.40
2018-05-23T16:05:29.377Z,26.40
2018-05-23T16:07:57.803Z,26.40
2018-05-23T16:10:27.129Z,26.40
2018-05-23T16:12:55.914Z,26.40
2018-05-23T16:15:24.902Z,26.40
2018-05-23T16:17:53.202Z,26.40
2018-05-23T16:20:21.549Z,26.50
2018-05-23T16:22:49.839Z,26.50
2018-05-23T16:25:18.120Z,26.50
2018-05-23T16:27:46.401Z,26.60
2018-05-23T16:30:14.676Z,26.60
2018-05-23T16:32:43.264Z,26.70
2018-05-23T16:35:11.524Z,26.70
2018-05-23T16:37:39.785Z,26.70
2018-05-23T16:40:08.064Z,26.80
2018-05-23T16:42:36.324Z,26.90
2018-05-23T16:45:04.608Z,26.80
2018-05-23T16:47:32.899Z,26.90
2018-05-23T16:50:01.374Z,26.80
2018-05-23T16:52:29.623Z,26.90
2018-05-23T16:54:58.670Z,26.80
2018-05-23T16:57:26.941Z,26.80
2018-05-23T16:59:55.181Z,26.70
2018-05-23T17:02:23.468Z,26.70
2018-05-23T17:04:51.716Z,26.70
2018-05-23T17:07:20.776Z,26.70
2018-05-23T17:09:49.849Z,26.70
2018-05-23T17:12:18.128Z,26.70
2018-05-23T17:14:46.451Z,26.70
2018-05-23T17:17:15.501Z,26.50
2018-05-23T17:19:43.785Z,26.50
2018-05-23T17:22:12.059Z,26.40
2018-05-23T17:24:40.323Z,26.40
2018-05-23T17:27:08.624Z,26.30
2018-05-23T17:29:36.911Z,26.20
2018-05-23T17:32:05.210Z,26.20
2018-05-23T17:34:34.265Z,26.00
2018-05-23T17:37:02.543Z,26.00
2018-05-23T17:39:30.856Z,26.00
2018-05-23T17:41:59.917Z,25.80
2018-05-23T17:44:28.221Z,25.70
2018-05-23T17:46:56.733Z,25.80
2018-05-23T17:49:25.020Z,25.70
2018-05-23T17:51:53.308Z,25.60
2018-05-23T17:54:21.693Z,25.50
2018-05-23T17:56:50.002Z,25.50
2018-05-23T17:59:18.261Z,25.40
2018-05-23T18:01:46.548Z,25.40
2018-05-23T18:04:14.797Z,25.40
2018-05-23T18:06:43.023Z,25.30
2018-05-23T18:09:12.257Z,25.20
2018-05-23T18:11:40.538Z,25.20
2018-05-23T18:14:08.823Z,25.10
2018-05-23T18:16:37.149Z,25.10
2018-05-23T18:19:05.415Z,25.00
2018-05-23T18:21:33.677Z,25.00
2018-05-23T18:24:01.957Z,25.00
2018-05-23T18:26:30.210Z,24.90
2018-05-23T18:28:58.465Z,24.80
2018-05-23T18:31:26.711Z,24.80
2018-05-23T18:33:55.730Z,24.70
2018-05-23T18:36:23.976Z,24.70
2018-05-23T18:38:52.270Z,24.70
2018-05-23T18:41:21.317Z,24.60
2018-05-23T18:43:49.603Z,24.60
2018-05-23T18:46:17.885Z,24.60
2018-05-23T18:48:53.214Z,24.50
2018-05-23T18:51:22.189Z,24.50
2018-05-23T18:56:20.296Z,24.40
2018-05-23T18:58:48.614Z,24.30
2018-05-23T19:01:17.635Z,24.20
2018-05-23T19:03:45.908Z,24.20
2018-05-23T19:06:14.187Z,24.20
2018-05-23T19:08:58.363Z,24.10
2018-05-23T19:11:26.625Z,24.00
2018-05-23T19:13:54.974Z,24.00
2018-05-23T19:16:23.183Z,23.90
2018-05-23T19:18:51.438Z,23.90
2018-05-23T19:21:19.703Z,23.80
2018-05-23T19:23:48.753Z,23.70
2018-05-23T19:26:17.055Z,23.60
2018-05-23T19:28:45.339Z,23.60
2018-05-23T19:31:14.399Z,23.50
2018-05-23T19:33:42.659Z,23.50
2018-05-23T19:36:10.935Z,23.50
2018-05-23T19:38:39.225Z,23.40
2018-05-23T19:41:07.501Z,23.30
2018-05-23T19:43:35.836Z,23.20
2018-05-23T19:46:04.874Z,23.10
2018-05-23T19:48:33.161Z,23.00
2018-05-23T19:51:01.974Z,23.00
2018-05-23T19:53:31.080Z,22.90
2018-05-23T19:56:00.191Z,22.80
2018-05-23T19:58:28.558Z,22.80
2018-05-23T20:00:57.624Z,22.80
2018-05-23T20:03:25.968Z,22.70
2018-05-23T20:05:54.319Z,22.70
2018-05-23T20:08:23.419Z,22.60
2018-05-23T20:10:51.706Z,22.50
2018-05-23T20:13:34.048Z,22.50
2018-05-23T20:16:03.377Z,22.50
2018-05-23T20:18:31.754Z,22.40
2018-05-23T20:21:00.094Z,22.30
2018-05-23T20:23:28.409Z,22.30
2018-05-23T20:25:56.676Z,22.30
2018-05-23T20:28:24.984Z,22.20
2018-05-23T20:30:54.095Z,22.10
2018-05-23T20:33:22.369Z,22.10
2018-05-23T20:35:50.684Z,22.10
2018-05-23T20:38:18.967Z,22.00
2018-05-23T20:40:47.335Z,22.00
2018-05-23T20:43:15.607Z,21.90
2018-05-23T20:45:43.888Z,21.90
2018-05-23T20:48:12.159Z,21.80
2018-05-23T20:50:40.425Z,21.80
2018-05-23T20:53:08.752Z,21.70
2018-05-23T20:55:38.130Z,21.70
2018-05-23T20:58:09.307Z,21.60
2018-05-23T21:00:38.375Z,21.50
2018-05-23T21:03:06.662Z,21.50
2018-05-23T21:05:35.006Z,21.50
2018-05-23T21:08:03.335Z,21.50
2018-05-23T21:10:32.392Z,21.40
2018-05-23T21:13:00.738Z,21.30
2018-05-23T21:15:29.045Z,21.30
2018-05-23T21:17:57.393Z,21.30
2018-05-23T21:20:25.708Z,21.20
2018-05-23T21:22:54.003Z,21.20
2018-05-23T21:25:22.323Z,21.10
2018-05-23T21:27:50.654Z,21.10
2018-05-23T21:30:18.963Z,21.00
2018-05-23T21:32:47.269Z,21.00
2018-05-23T21:35:15.567Z,21.00
2018-05-23T21:37:43.848Z,20.90
2018-05-23T21:40:12.090Z,20.90
2018-05-23T21:42:40.367Z,20.80
2018-05-23T21:45:08.635Z,20.70
2018-05-23T21:47:36.959Z,20.70
2018-05-23T21:50:05.269Z,20.60
2018-05-23T21:52:34.289Z,20.50
2018-05-23T21:55:02.581Z,20.50
2018-05-23T21:57:30.853Z,20.50
2018-05-23T21:59:59.143Z,20.50
2018-05-23T22:02:27.413Z,20.40
2018-05-23T22:04:55.697Z,20.40
2018-05-23T22:07:23.950Z,20.30
2018-05-23T22:09:52.189Z,20.30
2018-05-23T22:12:20.447Z,20.30
2018-05-23T22:14:48.729Z,20.20
2018-05-23T22:17:16.977Z,20.20
2018-05-23T22:19:45.269Z,20.20
2018-05-23T22:22:13.529Z,20.10
2018-05-23T22:24:41.834Z,20.10
2018-05-23T22:27:10.129Z,20.00
2018-05-23T22:29:38.394Z,20.00
2018-05-23T22:32:06.667Z,19.90
2018-05-23T22:34:34.938Z,19.90
2018-05-23T22:37:03.192Z,19.90
2018-05-23T22:39:31.456Z,19.80
2018-05-23T22:41:59.736Z,19.80
2018-05-23T22:44:27.988Z,19.70
2018-05-23T22:46:57.002Z,19.70
2018-05-23T22:49:25.247Z,19.60
2018-05-23T22:51:54.273Z,19.60
2018-05-23T22:54:22.515Z,19.60
2018-05-23T22:56:51.525Z,19.50
2018-05-23T22:59:20.554Z,19.50
2018-05-23T23:01:48.806Z,19.40
2018-05-23T23:04:17.136Z,19.40
2018-05-23T23:06:45.441Z,19.40
2018-05-23T23:09:14.475Z,19.30
2018-05-23T23:11:43.539Z,19.30
2018-05-23T23:14:12.582Z,19.30
2018-05-23T23:16:40.913Z,19.20
2018-05-23T23:19:09.197Z,19.20
2018-05-23T23:21:37.533Z,19.20
2018-05-23T23:24:05.868Z,19.10
2018-05-23T23:26:34.199Z,19.10
2018-05-23T23:29:02.518Z,19.10
2018-05-23T23:31:30.854Z,19.00
2018-05-23T23:33:59.125Z,19.00
2018-05-23T23:36:27.439Z,19.00
2018-05-23T23:38:55.712Z,18.90
2018-05-23T23:41:24.046Z,18.90
2018-05-23T23:43:52.375Z,18.80
2018-05-23T23:46:20.937Z,18.80
2018-05-23T23:48:49.794Z,18.80
2018-05-23T23:51:18.117Z,18.70
2018-05-23T23:53:47.154Z,18.70
2018-05-23T23:56:15.416Z,18.70
2018-05-23T23:58:43.709Z,18.70
